Skip Navigation Links
NOAA logo - Click to go to the NOAA homepage
NOAA's National Weather Service
Alaska Aviation Weather Unit
  NWS logo - Click to go to the NWS homepage
Left Navbar Graphic     02 AKDT = 10 GMT

   
NOAA is celebrating 200 years of science, service, and stewardship. Visit the NOAA 200th celebration Web site to learn more.
USA.gov is the U.S. Government's official Web portal to all Federal, state and local government Web resources and services.
Facebook
NWS on Facebook

AAWU Home :: Display TAF Add Bookmark
TAF PAWG 270540Z 2706/2806 11005KT P6SM BKN060 OVC100
     FM270700 11006KT P6SM -RA SCT025 OVC040
     FM271900 12010KT P6SM -RA OVC025
     FM272200 12010KT 6SM -RA BR OVC015 WS020/13025KT
     FM280200 12008KT 6SM -SHRA BR OVC025
      AMD LTD TO CLD VIS AND WIND 2706/2715=
METAR PAWG 270416Z 11003KT 10SM OVC120 05/00 A2958=

METAR PAWG 270416Z 11003KT 10SM OVC120 05/00 A2958 RMK AO2 SLP296 PWINO
     FZRANO RVRNO=

METAR PAWG 270436Z 12004KT 10SM OVC120 04/01 A2958=

METAR PAWG 270436Z 12004KT 10SM OVC120 04/01 A2958 RMK AO2 SLP296 PWINO
     FZRANO RVRNO=

METAR PAWG 270516Z 11005KT 10SM BKN060 OVC120 04/02 A2958=

METAR PAWG 270516Z 11005KT 10SM BKN060 OVC120 04/02 A2958 RMK AO2 SLP296
     PWINO FZRANO RVRNO=

METAR PAWG 270536Z 12005KT 10SM BKN060 OVC120 04/02 A2958=

METAR PAWG 270536Z 12005KT 10SM BKN060 OVC120 04/02 A2958 RMK AO2 SLP296
     PWINO FZRANO RVRNO=

METAR PAWG 270556Z 11005KT 10SM BKN060 OVC120 04/01 A2958=

METAR PAWG 270636Z 12006KT 10SM BKN060 05/01 A2959=

METAR PAWG 270636Z 12006KT 10SM BKN060 05/01 A2959 RMK AO2 SLP296
 PWINO FZRANO RVRNO=

METAR PAWG 270656Z AUTO 11005KT 10SM OVC055 05/00 A2959=

METAR PAWG 270716Z 11006KT 10SM BKN055 OVC080 05/00 A2960=

METAR PAWG 270716Z 11006KT 10SM BKN055 OVC080 05/00 A2960 RMK AO2
 SLP296 PWINO FZRANO RVRNO=

METAR PAWG 270736Z 13004KT 10SM BKN060 OVC080 04/01 A2960=

METAR PAWG 270736Z 13004KT 10SM BKN060 OVC080 04/01 A2960 RMK AO2 SLP296
     PWINO FZRANO RVRNO=

METAR PAWG 270756Z AUTO 00000KT 10SM SCT060 04/01 A2961=

METAR PAWG 270816Z 00000KT 10SM FEW055 05/01 A2962=

METAR PAWG 270816Z 00000KT 10SM FEW055 05/01 A2962 RMK AO2 SLP296 PWINO
     FZRANO RVRNO=

METAR PAWG 270856Z 12010KT 10SM OVC060 07/01 A2961=

METAR PAWG 270916Z 13007KT 090V160 10SM OVC055 07/01 A2962=

METAR PAWG 270916Z 13007KT 090V160 10SM OVC055 07/01 A2962 RMK AO2
     SLP296 PWINO FZRANO RVRNO=

METAR PAWG 270956Z AUTO 24005KT 10SM BKN055 06/01 A2963=

METAR PAWG 271016Z VRB04KT 10SM FEW035 SCT048 BKN055 06/01 A2964=

METAR PAWG 271016Z VRB04KT 10SM FEW035 SCT048 BKN055 06/01 A2964 RMK AO2
     SLP296 PWINO FZRANO RVRNO=


NOAA's National Weather Service
Alaska Aviation Weather Unit
6930 Sand Lake Road
Anchorage, AK 99502-1845
Disclaimer
Credits
Glossary
Privacy Policy
About Us
Career Opportunities
Contact AAWU Internet Services Site last modified: April, 17th 2012